Time,TemperatureF,DewpointF,PressureIn,WindDirection,WindDirectionDegrees,WindSpeedMPH,WindSpeedGustMPH,Humidity,HourlyPrecipIn,Conditions,Clouds,dailyrainin,SoftwareType,DateUTC
2013-07-23 00:00:00,70.5,68.1,29.73,East,80,0.0,0.0,92,0.00,,,0.00,WeatherCatV1.15B25,2013-07-23 04:00:00,
2013-07-23 00:01:00,70.5,68.1,29.74,East,80,0.0,0.0,92,0.00,,,0.00,WeatherCatV1.15B25,2013-07-23 04:01:00,
2013-07-23 00:03:00,70.5,68.1,29.74,East,80,0.0,0.0,92,0.00,,,0.00,WeatherCatV1.15B25,2013-07-23 04:03:00,
2013-07-23 00:07:00,70.4,68.0,29.74,East,81,0.0,0.0,92,0.00,,,0.00,WeatherCatV1.15B25,2013-07-23 04:07:00,
2013-07-23 00:09:00,70.4,68.0,29.74,East,80,0.0,0.0,92,0.00,,,0.00,WeatherCatV1.15B25,2013-07-23 04:09:00,
2013-07-23 00:10:00,70.4,68.0,29.74,East,81,0.0,0.0,92,0.00,,,0.00,WeatherCatV1.15B25,2013-07-23 04:10:00,
2013-07-23 00:15:00,70.3,67.9,29.74,East,80,0.0,0.0,92,0.00,,,0.00,WeatherCatV1.15B25,2013-07-23 04:15:00,
2013-07-23 00:20:00,70.2,67.8,29.74,East,81,0.0,0.0,92,0.00,,,0.00,WeatherCatV1.15B25,2013-07-23 04:20:00,
2013-07-23 00:25:00,70.2,67.8,29.74,East,81,0.0,0.0,92,0.00,,,0.00,WeatherCatV1.15B25,2013-07-23 04:25:00,
2013-07-23 00:30:00,70.1,68.0,29.74,East,81,0.0,0.0,93,0.00,,,0.00,WeatherCatV1.15B25,2013-07-23 04:30:00,
2013-07-23 00:35:00,70.1,68.0,29.74,East,80,0.0,0.0,93,0.00,,,0.00,WeatherCatV1.15B25,2013-07-23 04:35:00,
2013-07-23 00:40:00,70.1,68.0,29.73,East,81,0.0,0.0,93,0.00,,,0.00,WeatherCatV1.15B25,2013-07-23 04:40:00,
2013-07-23 00:45:00,70.1,68.0,29.73,East,80,0.0,0.0,93,0.00,,,0.00,WeatherCatV1.15B25,2013-07-23 04:45:00,
2013-07-23 00:50:00,70.0,67.9,29.73,East,81,0.0,0.0,93,0.00,,,0.00,WeatherCatV1.15B25,2013-07-23 04:50:00,
2013-07-23 00:55:00,69.9,67.5,29.74,East,81,0.0,0.0,92,0.00,,,0.00,WeatherCatV1.15B25,2013-07-23 04:55:00,
2013-07-23 01:00:00,69.9,67.5,29.73,East,81,0.0,0.0,92,0.00,,,0.00,WeatherCatV1.15B25,2013-07-23 05:00:00,
2013-07-23 01:05:00,69.9,67.5,29.73,East,80,0.0,0.0,92,0.00,,,0.00,WeatherCatV1.15B25,2013-07-23 05:05:00,
2013-07-23 01:10:00,69.8,67.4,29.73,East,80,0.0,0.0,92,0.00,,,0.00,WeatherCatV1.15B25,2013-07-23 05:10:00,
2013-07-23 01:15:00,69.9,67.8,29.73,East,81,0.0,0.0,93,0.00,,,0.00,WeatherCatV1.15B25,2013-07-23 05:15:00,
2013-07-23 01:20:00,69.9,67.8,29.73,East,81,0.0,0.0,93,0.00,,,0.00,WeatherCatV1.15B25,2013-07-23 05:20:00,
2013-07-23 01:25:00,69.8,67.7,29.73,East,80,0.0,0.0,93,0.00,,,0.00,WeatherCatV1.15B25,2013-07-23 05:25:00,
2013-07-23 01:30:00,69.8,67.7,29.73,East,81,0.0,0.0,93,0.00,,,0.00,WeatherCatV1.15B25,2013-07-23 05:30:00,
2013-07-23 01:35:00,69.7,67.6,29.72,East,81,0.0,0.0,93,0.00,,,0.00,WeatherCatV1.15B25,2013-07-23 05:35:00,
2013-07-23 01:40:00,69.7,67.6,29.72,East,81,0.0,0.0,93,0.00,,,0.00,WeatherCatV1.15B25,2013-07-23 05:40:00,
2013-07-23 01:45:00,69.6,67.5,29.72,East,81,0.0,0.0,93,0.00,,,0.00,WeatherCatV1.15B25,2013-07-23 05:45:00,
2013-07-23 01:50:00,69.6,67.5,29.72,East,81,0.0,0.0,93,0.00,,,0.00,WeatherCatV1.15B25,2013-07-23 05:50:00,
2013-07-23 01:55:00,69.5,67.4,29.72,East,81,0.0,0.0,93,0.00,,,0.00,WeatherCatV1.15B25,2013-07-23 05:55:00,
2013-07-23 02:00:00,69.5,67.4,29.72,East,80,0.0,0.0,93,0.00,,,0.00,WeatherCatV1.15B25,2013-07-23 06:00:00,
2013-07-23 02:05:00,69.4,67.3,29.72,East,80,0.0,0.0,93,0.00,,,0.00,WeatherCatV1.15B25,2013-07-23 06:05:00,
2013-07-23 02:10:00,69.3,67.2,29.72,East,81,0.0,0.0,93,0.00,,,0.00,WeatherCatV1.15B25,2013-07-23 06:10:00,
2013-07-23 02:15:00,69.2,67.1,29.72,East,81,0.0,0.0,93,0.00,,,0.00,WeatherCatV1.15B25,2013-07-23 06:15:00,
2013-07-23 02:20:00,69.2,67.1,29.72,East,81,0.0,0.0,93,0.00,,,0.00,WeatherCatV1.15B25,2013-07-23 06:20:00,
2013-07-23 02:25:00,69.1,67.0,29.71,East,80,0.0,0.0,93,0.00,,,0.00,WeatherCatV1.15B25,2013-07-23 06:25:00,
2013-07-23 02:30:00,69.1,67.0,29.72,East,81,0.0,0.0,93,0.00,,,0.00,WeatherCatV1.15B25,2013-07-23 06:30:00,
2013-07-23 02:35:00,69.1,67.0,29.72,East,81,0.0,0.0,93,0.00,,,0.00,WeatherCatV1.15B25,2013-07-23 06:35:00,
2013-07-23 02:40:00,69.2,67.1,29.71,East,80,0.0,0.0,93,0.00,,,0.00,WeatherCatV1.15B25,2013-07-23 06:40:00,
2013-07-23 02:45:00,69.2,67.1,29.72,East,80,0.0,0.0,93,0.00,,,0.00,WeatherCatV1.15B25,2013-07-23 06:45:00,
2013-07-23 02:50:00,69.2,67.1,29.72,East,81,0.0,0.0,93,0.00,,,0.00,WeatherCatV1.15B25,2013-07-23 06:50:00,
2013-07-23 02:55:00,69.3,67.2,29.72,East,81,0.0,0.0,93,0.00,,,0.00,WeatherCatV1.15B25,2013-07-23 06:55:00,
2013-07-23 03:00:00,69.4,67.3,29.72,East,80,0.0,0.0,93,0.00,,,0.00,WeatherCatV1.15B25,2013-07-23 07:00:00,
2013-07-23 03:05:00,69.5,67.4,29.72,East,80,0.0,0.0,93,0.00,,,0.00,WeatherCatV1.15B25,2013-07-23 07:05:00,
2013-07-23 03:10:00,69.5,67.4,29.72,East,80,0.0,0.0,93,0.00,,,0.00,WeatherCatV1.15B25,2013-07-23 07:10:00,
2013-07-23 03:15:00,69.6,67.5,29.72,East,80,0.0,0.0,93,0.00,,,0.00,WeatherCatV1.15B25,2013-07-23 07:15:00,
2013-07-23 03:21:00,69.6,67.5,29.72,East,80,0.0,0.0,93,0.00,,,0.00,WeatherCatV1.15B25,2013-07-23 07:21:00,
2013-07-23 03:26:00,69.5,67.4,29.72,East,81,0.0,0.0,93,0.00,,,0.00,WeatherCatV1.15B25,2013-07-23 07:26:00,
2013-07-23 03:31:00,69.4,67.3,29.72,East,81,0.0,0.0,93,0.00,,,0.00,WeatherCatV1.15B25,2013-07-23 07:31:00,
2013-07-23 03:36:00,69.3,67.2,29.71,East,81,0.0,0.0,93,0.00,,,0.00,WeatherCatV1.15B25,2013-07-23 07:36:00,
2013-07-23 03:41:00,69.2,67.1,29.71,East,80,0.0,0.0,93,0.00,,,0.00,WeatherCatV1.15B25,2013-07-23 07:41:00,
2013-07-23 03:46:00,69.0,66.9,29.71,East,81,0.0,0.0,93,0.00,,,0.00,WeatherCatV1.15B25,2013-07-23 07:46:00,
2013-07-23 03:52:00,68.7,66.6,29.71,East,81,0.0,0.0,93,0.00,,,0.00,WeatherCatV1.15B25,2013-07-23 07:52:00,
2013-07-23 03:57:00,68.6,66.5,29.70,East,81,0.0,0.0,93,0.00,,,0.00,WeatherCatV1.15B25,2013-07-23 07:57:00,
2013-07-23 04:02:00,68.5,66.4,29.71,East,80,0.0,0.0,93,0.00,,,0.00,WeatherCatV1.15B25,2013-07-23 08:02:00,
2013-07-23 04:07:00,68.5,66.4,29.70,East,80,0.0,0.0,93,0.00,,,0.00,WeatherCatV1.15B25,2013-07-23 08:07:00,
2013-07-23 04:12:00,68.5,66.4,29.70,East,81,0.0,0.0,93,0.00,,,0.00,WeatherCatV1.15B25,2013-07-23 08:12:00,
2013-07-23 04:17:00,68.3,66.2,29.71,East,80,0.0,0.0,93,0.00,,,0.00,WeatherCatV1.15B25,2013-07-23 08:17:00,
2013-07-23 04:22:00,68.2,66.1,29.70,East,81,0.0,0.0,93,0.00,,,0.00,WeatherCatV1.15B25,2013-07-23 08:22:00,
2013-07-23 04:27:00,68.1,66.0,29.70,East,81,0.0,0.0,93,0.00,,,0.00,WeatherCatV1.15B25,2013-07-23 08:27:00,
2013-07-23 04:32:00,68.1,66.0,29.70,East,81,0.0,0.0,93,0.00,,,0.00,WeatherCatV1.15B25,2013-07-23 08:32:00,
2013-07-23 04:37:00,68.0,65.9,29.70,East,80,0.0,0.0,93,0.00,,,0.00,WeatherCatV1.15B25,2013-07-23 08:37:00,
2013-07-23 04:42:00,68.0,65.9,29.70,East,80,0.0,0.0,93,0.00,,,0.00,WeatherCatV1.15B25,2013-07-23 08:42:00,
2013-07-23 04:47:00,67.9,65.8,29.70,East,81,0.0,0.0,93,0.00,,,0.00,WeatherCatV1.15B25,2013-07-23 08:47:00,
2013-07-23 04:52:00,67.8,65.7,29.70,East,81,0.0,0.0,93,0.00,,,0.00,WeatherCatV1.15B25,2013-07-23 08:52:00,
2013-07-23 04:57:00,67.7,65.6,29.70,East,81,0.0,0.0,93,0.00,,,0.00,WeatherCatV1.15B25,2013-07-23 08:57:00,
2013-07-23 05:02:00,67.7,65.6,29.70,East,80,0.0,0.0,93,0.00,,,0.00,WeatherCatV1.15B25,2013-07-23 09:02:00,
2013-07-23 05:07:00,67.6,65.5,29.70,East,81,0.0,0.0,93,0.00,,,0.00,WeatherCatV1.15B25,2013-07-23 09:07:00,
2013-07-23 05:12:00,67.5,65.4,29.70,East,80,0.0,0.0,93,0.00,,,0.00,WeatherCatV1.15B25,2013-07-23 09:12:00,
2013-07-23 05:17:00,67.4,65.3,29.70,East,81,0.0,0.0,93,0.00,,,0.00,WeatherCatV1.15B25,2013-07-23 09:17:00,
2013-07-23 05:22:00,67.3,65.2,29.70,East,81,0.0,0.0,93,0.00,,,0.00,WeatherCatV1.15B25,2013-07-23 09:22:00,
2013-07-23 05:27:00,67.2,65.1,29.70,East,81,0.0,0.0,93,0.00,,,0.00,WeatherCatV1.15B25,2013-07-23 09:27:00,
2013-07-23 05:32:00,67.1,65.0,29.70,East,81,0.0,0.0,93,0.00,,,0.00,WeatherCatV1.15B25,2013-07-23 09:32:00,
2013-07-23 05:37:00,67.0,64.9,29.70,East,80,0.0,0.0,93,0.00,,,0.00,WeatherCatV1.15B25,2013-07-23 09:37:00,
2013-07-23 05:42:00,66.9,64.8,29.70,East,81,0.0,0.0,93,0.00,,,0.00,WeatherCatV1.15B25,2013-07-23 09:42:00,
2013-07-23 05:47:00,66.9,64.8,29.70,East,81,0.0,0.0,93,0.00,,,0.00,WeatherCatV1.15B25,2013-07-23 09:47:00,
2013-07-23 05:52:00,66.8,64.7,29.70,East,81,0.0,0.0,93,0.00,,,0.00,WeatherCatV1.15B25,2013-07-23 09:52:00,
2013-07-23 05:57:00,66.8,64.7,29.70,East,80,0.0,0.0,93,0.00,,,0.00,WeatherCatV1.15B25,2013-07-23 09:57:00,
2013-07-23 06:02:00,66.8,64.7,29.70,East,81,0.0,0.0,93,0.00,,,0.00,WeatherCatV1.15B25,2013-07-23 10:02:00,
2013-07-23 06:07:00,66.7,64.6,29.70,East,81,0.0,0.0,93,0.00,,,0.00,WeatherCatV1.15B25,2013-07-23 10:07:00,
2013-07-23 06:12:00,66.6,64.5,29.70,East,80,0.0,0.0,93,0.00,,,0.00,WeatherCatV1.15B25,2013-07-23 10:12:00,
2013-07-23 06:17:00,66.6,64.5,29.70,East,80,0.0,0.0,93,0.00,,,0.00,WeatherCatV1.15B25,2013-07-23 10:17:00,
2013-07-23 06:22:00,66.6,64.5,29.70,East,80,0.0,0.0,93,0.00,,,0.00,WeatherCatV1.15B25,2013-07-23 10:22:00,
2013-07-23 06:27:00,66.5,64.4,29.70,East,80,0.0,0.0,93,0.00,,,0.00,WeatherCatV1.15B25,2013-07-23 10:27:00,
2013-07-23 06:32:00,66.6,64.5,29.70,East,80,0.0,0.0,93,0.00,,,0.00,WeatherCatV1.15B25,2013-07-23 10:32:00,
2013-07-23 06:37:00,66.6,64.5,29.71,East,80,0.0,0.0,93,0.00,,,0.00,WeatherCatV1.15B25,2013-07-23 10:37:00,
2013-07-23 06:42:00,66.7,64.6,29.71,East,81,0.0,0.0,93,0.00,,,0.00,WeatherCatV1.15B25,2013-07-23 10:42:00,
2013-07-23 06:47:00,66.7,64.6,29.71,East,80,0.0,0.0,93,0.00,,,0.00,WeatherCatV1.15B25,2013-07-23 10:47:00,
2013-07-23 06:52:00,66.7,64.6,29.71,East,80,0.0,0.0,93,0.00,,,0.00,WeatherCatV1.15B25,2013-07-23 10:52:00,
2013-07-23 06:57:00,66.8,64.7,29.71,East,81,0.0,0.0,93,0.00,,,0.00,WeatherCatV1.15B25,2013-07-23 10:57:00,
2013-07-23 07:02:00,66.9,64.8,29.71,East,81,0.0,0.0,93,0.00,,,0.00,WeatherCatV1.15B25,2013-07-23 11:02:00,
2013-07-23 07:07:00,67.1,65.0,29.71,East,81,0.0,0.0,93,0.00,,,0.00,WeatherCatV1.15B25,2013-07-23 11:07:00,
2013-07-23 07:12:00,67.5,65.4,29.72,East,81,0.0,0.0,93,0.00,,,0.00,WeatherCatV1.15B25,2013-07-23 11:12:00,
2013-07-23 07:17:00,67.7,65.9,29.72,East,81,0.0,0.0,94,0.00,,,0.00,WeatherCatV1.15B25,2013-07-23 11:17:00,
2013-07-23 07:22:00,67.9,65.8,29.72,East,81,0.0,0.0,93,0.00,,,0.00,WeatherCatV1.15B25,2013-07-23 11:22:00,
2013-07-23 07:27:00,68.1,66.0,29.72,East,80,0.0,0.0,93,0.00,,,0.00,WeatherCatV1.15B25,2013-07-23 11:27:00,
2013-07-23 07:32:00,68.2,66.4,29.72,East,80,0.0,0.0,94,0.00,,,0.00,WeatherCatV1.15B25,2013-07-23 11:32:00,
2013-07-23 07:37:00,68.4,66.6,29.72,East,81,0.0,0.0,94,0.00,,,0.00,WeatherCatV1.15B25,2013-07-23 11:37:00,
2013-07-23 07:42:00,68.6,66.5,29.73,East,81,0.0,0.0,93,0.00,,,0.00,WeatherCatV1.15B25,2013-07-23 11:42:00,
2013-07-23 07:47:00,68.7,66.6,29.73,East,80,0.0,0.0,93,0.00,,,0.00,WeatherCatV1.15B25,2013-07-23 11:47:00,
2013-07-23 07:52:00,68.9,67.1,29.73,East,81,0.0,0.0,94,0.00,,,0.00,WeatherCatV1.15B25,2013-07-23 11:52:00,
2013-07-23 07:57:00,69.1,67.0,29.72,East,81,0.0,0.0,93,0.00,,,0.00,WeatherCatV1.15B25,2013-07-23 11:57:00,
2013-07-23 08:02:00,69.2,67.1,29.72,East,80,0.0,0.0,93,0.00,,,0.00,WeatherCatV1.15B25,2013-07-23 12:02:00,
2013-07-23 08:07:00,69.8,68.0,29.72,East,80,0.0,0.0,94,0.00,,,0.00,WeatherCatV1.15B25,2013-07-23 12:07:00,
2013-07-23 08:12:00,70.2,68.4,29.72,West,264,0.0,0.0,94,0.00,,,0.00,WeatherCatV1.15B25,2013-07-23 12:12:00,
2013-07-23 08:17:00,70.7,68.6,29.72,West,263,1.0,3.0,93,0.00,,,0.00,WeatherCatV1.15B25,2013-07-23 12:17:00,
2013-07-23 08:22:00,71.1,69.0,29.72,WSW,246,1.0,2.0,93,0.00,,,0.00,WeatherCatV1.15B25,2013-07-23 12:22:00,
2013-07-23 08:27:00,71.3,69.2,29.72,SW,227,0.0,0.0,93,0.00,,,0.00,WeatherCatV1.15B25,2013-07-23 12:27:00,
2013-07-23 08:32:00,71.6,69.5,29.71,SW,233,0.0,2.0,93,0.00,,,0.00,WeatherCatV1.15B25,2013-07-23 12:32:00,
2013-07-23 08:37:00,71.6,69.1,29.71,SSW,206,0.0,3.0,92,0.00,,,0.00,WeatherCatV1.15B25,2013-07-23 12:37:00,
2013-07-23 08:42:00,72.0,69.5,29.71,SSW,206,0.0,0.0,92,0.00,,,0.00,WeatherCatV1.15B25,2013-07-23 12:42:00,
2013-07-23 08:47:00,72.3,69.8,29.71,SSW,206,0.0,2.0,92,0.00,,,0.00,WeatherCatV1.15B25,2013-07-23 12:47:00,
2013-07-23 08:52:00,72.9,70.4,29.71,WSW,255,2.0,2.0,92,0.00,,,0.00,WeatherCatV1.15B25,2013-07-23 12:52:00,
2013-07-23 08:57:00,73.1,70.6,29.71,SW,233,0.0,2.0,92,0.00,,,0.00,WeatherCatV1.15B25,2013-07-23 12:57:00,
2013-07-23 09:02:00,72.8,70.3,29.71,WSW,244,1.0,2.0,92,0.00,,,0.00,WeatherCatV1.15B25,2013-07-23 13:02:00,
2013-07-23 09:07:00,73.1,70.3,29.70,SSW,200,0.0,2.0,91,0.00,,,0.00,WeatherCatV1.15B25,2013-07-23 13:07:00,
2013-07-23 09:12:00,73.4,70.6,29.70,SSW,200,0.0,3.0,91,0.00,,,0.00,WeatherCatV1.15B25,2013-07-23 13:12:00,
2013-07-23 09:17:00,73.4,70.6,29.70,SSW,200,0.0,0.0,91,0.00,,,0.00,WeatherCatV1.15B25,2013-07-23 13:17:00,
2013-07-23 09:22:00,73.6,70.5,29.70,WSW,249,0.0,1.0,90,0.00,,,0.00,WeatherCatV1.15B25,2013-07-23 13:22:00,
2013-07-23 09:27:00,73.8,70.7,29.70,SSW,196,0.0,3.0,90,0.00,,,0.00,WeatherCatV1.15B25,2013-07-23 13:27:00,
2013-07-23 09:32:00,74.1,71.0,29.70,SSW,209,1.0,3.0,90,0.00,,,0.00,WeatherCatV1.15B25,2013-07-23 13:32:00,
2013-07-23 09:37:00,74.3,70.5,29.70,SSW,198,0.0,3.0,88,0.00,,,0.00,WeatherCatV1.15B25,2013-07-23 13:37:00,
2013-07-23 09:42:00,74.5,71.0,29.70,SSW,198,0.0,0.0,89,0.00,,,0.00,WeatherCatV1.15B25,2013-07-23 13:42:00,
2013-07-23 09:47:00,74.7,70.9,29.70,SW,233,0.0,3.0,88,0.00,,,0.00,WeatherCatV1.15B25,2013-07-23 13:47:00,
2013-07-23 09:52:00,74.8,70.0,29.70,SSW,196,0.0,5.0,85,0.00,,,0.00,WeatherCatV1.15B25,2013-07-23 13:52:00,
2013-07-23 09:57:00,75.0,70.2,29.70,SSW,195,0.0,0.0,85,0.00,,,0.00,WeatherCatV1.15B25,2013-07-23 13:57:00,
2013-07-23 10:02:00,75.4,69.9,29.69,SSW,196,0.0,4.0,83,0.00,,,0.00,WeatherCatV1.15B25,2013-07-23 14:02:00,
2013-07-23 10:07:00,75.8,69.9,29.69,WSW,243,1.0,3.0,82,0.00,,,0.00,WeatherCatV1.15B25,2013-07-23 14:07:00,
2013-07-23 10:12:00,76.1,69.1,29.69,SW,229,3.0,4.0,79,0.00,,,0.00,WeatherCatV1.15B25,2013-07-23 14:12:00,
2013-07-23 10:17:00,76.5,69.9,29.70,WSW,246,0.0,2.0,80,0.00,,,0.00,WeatherCatV1.15B25,2013-07-23 14:17:00,
2013-07-23 10:22:00,76.6,68.8,29.70,West,263,0.0,2.0,77,0.00,,,0.00,WeatherCatV1.15B25,2013-07-23 14:22:00,
2013-07-23 10:27:00,76.8,69.4,29.70,WSW,253,0.0,2.0,78,0.00,,,0.00,WeatherCatV1.15B25,2013-07-23 14:27:00,
2013-07-23 10:32:00,77.1,68.9,29.70,WSW,253,1.0,1.0,76,0.00,,,0.00,WeatherCatV1.15B25,2013-07-23 14:32:00,
2013-07-23 10:37:00,77.6,69.4,29.70,WSW,253,0.0,0.0,76,0.00,,,0.00,WeatherCatV1.15B25,2013-07-23 14:37:00,
2013-07-23 10:42:00,77.7,69.1,29.70,SW,229,0.0,0.0,75,0.00,,,0.00,WeatherCatV1.15B25,2013-07-23 14:42:00,
2013-07-23 10:47:00,77.8,68.4,29.70,SW,229,0.0,1.0,73,0.00,,,0.00,WeatherCatV1.15B25,2013-07-23 14:47:00,
2013-07-23 10:52:00,78.1,69.1,29.70,WSW,254,0.0,1.0,74,0.00,,,0.00,WeatherCatV1.15B25,2013-07-23 14:52:00,
2013-07-23 10:57:00,78.4,68.6,29.70,WSW,249,0.0,2.0,72,0.00,,,0.00,WeatherCatV1.15B25,2013-07-23 14:57:00,
2013-07-23 11:02:00,78.5,68.3,29.70,West,260,6.0,6.0,71,0.00,,,0.00,WeatherCatV1.15B25,2013-07-23 15:02:00,
2013-07-23 11:07:00,78.4,67.8,29.70,WSW,251,0.0,1.0,70,0.00,,,0.00,WeatherCatV1.15B25,2013-07-23 15:07:00,
2013-07-23 11:12:00,78.8,68.6,29.69,West,267,2.0,4.0,71,0.00,,,0.00,WeatherCatV1.15B25,2013-07-23 15:12:00,
2013-07-23 11:17:00,79.0,67.5,29.69,WSW,238,0.0,3.0,68,0.00,,,0.00,WeatherCatV1.15B25,2013-07-23 15:17:00,
2013-07-23 11:22:00,79.3,69.5,29.69,WSW,243,0.0,2.0,72,0.00,,,0.00,WeatherCatV1.15B25,2013-07-23 15:22:00,
2013-07-23 11:27:00,80.1,70.6,29.69,West,277,3.0,4.0,73,0.00,,,0.00,WeatherCatV1.15B25,2013-07-23 15:27:00,
2013-07-23 11:32:00,80.1,69.0,29.69,SE,133,0.0,0.0,69,0.00,,,0.00,WeatherCatV1.15B25,2013-07-23 15:32:00,
2013-07-23 11:37:00,80.1,68.1,29.69,SE,146,0.0,1.0,67,0.00,,,0.00,WeatherCatV1.15B25,2013-07-23 15:37:00,
2013-07-23 11:42:00,80.1,67.2,29.69,West,275,2.0,6.0,65,0.00,,,0.00,WeatherCatV1.15B25,2013-07-23 15:42:00,
2013-07-23 11:47:00,80.4,68.4,29.69,SSW,207,4.0,4.0,67,0.00,,,0.00,WeatherCatV1.15B25,2013-07-23 15:47:00,
2013-07-23 11:52:00,80.4,68.0,29.69,SW,225,0.0,5.0,66,0.00,,,0.00,WeatherCatV1.15B25,2013-07-23 15:52:00,
2013-07-23 11:57:00,80.4,68.0,29.70,WSW,257,0.0,2.0,66,0.00,,,0.00,WeatherCatV1.15B25,2013-07-23 15:57:00,
2013-07-23 12:02:00,80.8,69.2,29.70,WNW,299,2.0,4.0,68,0.00,,,0.00,WeatherCatV1.15B25,2013-07-23 16:02:00,
2013-07-23 12:07:00,80.6,69.5,29.70,SW,229,2.0,4.0,69,0.00,,,0.00,WeatherCatV1.15B25,2013-07-23 16:07:00,
2013-07-23 12:12:00,79.9,68.4,29.70,WSW,254,2.0,4.0,68,0.00,,,0.00,WeatherCatV1.15B25,2013-07-23 16:12:00,
2013-07-23 12:17:00,79.6,69.3,29.70,West,261,5.0,9.0,71,0.00,,,0.00,WeatherCatV1.15B25,2013-07-23 16:17:00,
2013-07-23 12:22:00,79.6,69.8,29.70,WSW,242,4.0,7.0,72,0.00,,,0.00,WeatherCatV1.15B25,2013-07-23 16:22:00,
2013-07-23 12:27:00,79.8,69.5,29.70,WNW,291,2.0,6.0,71,0.00,,,0.00,WeatherCatV1.15B25,2013-07-23 16:27:00,
2013-07-23 12:32:00,79.8,69.9,29.70,WNW,284,3.0,7.0,72,0.00,,,0.00,WeatherCatV1.15B25,2013-07-23 16:32:00,
2013-07-23 12:37:00,78.7,68.5,29.71,WSW,238,3.0,7.0,71,0.00,,,0.00,WeatherCatV1.15B25,2013-07-23 16:37:00,
2013-07-23 12:42:00,78.2,68.4,29.71,WNW,288,5.0,6.0,72,0.00,,,0.00,WeatherCatV1.15B25,2013-07-23 16:42:00,
2013-07-23 12:47:00,78.6,69.6,29.70,West,265,4.0,7.0,74,0.00,,,0.00,WeatherCatV1.15B25,2013-07-23 16:47:00,
2013-07-23 12:52:00,78.9,68.3,29.70,SSW,193,3.0,8.0,70,0.00,,,0.00,WeatherCatV1.15B25,2013-07-23 16:52:00,
2013-07-23 12:57:00,78.8,68.2,29.70,SW,229,5.0,8.0,70,0.00,,,0.00,WeatherCatV1.15B25,2013-07-23 16:57:00,
2013-07-23 13:02:00,78.0,67.8,29.69,WSW,242,8.0,8.0,71,0.00,,,0.00,WeatherCatV1.15B25,2013-07-23 17:02:00,
2013-07-23 13:07:00,77.4,68.4,29.69,SW,225,2.0,5.0,74,0.00,,,0.01,WeatherCatV1.15B25,2013-07-23 17:07:00,
2013-07-23 13:12:00,76.7,68.9,29.68,SW,217,0.0,1.0,77,0.17,,,0.02,WeatherCatV1.15B25,2013-07-23 17:12:00,
2013-07-23 13:17:00,76.0,69.4,29.68,SW,217,0.0,2.0,80,0.09,,,0.02,WeatherCatV1.15B25,2013-07-23 17:17:00,
2013-07-23 13:22:00,74.9,69.0,29.68,SW,217,1.0,3.0,82,0.05,,,0.02,WeatherCatV1.15B25,2013-07-23 17:22:00,
2013-07-23 13:27:00,74.5,69.3,29.68,SW,217,1.0,3.0,84,0.04,,,0.02,WeatherCatV1.15B25,2013-07-23 17:27:00,
2013-07-23 13:32:00,74.6,69.8,29.68,SW,217,1.0,3.0,85,0.00,,,0.02,WeatherCatV1.15B25,2013-07-23 17:32:00,
2013-07-23 13:37:00,74.9,70.1,29.68,SW,217,0.0,0.0,85,0.00,,,0.02,WeatherCatV1.15B25,2013-07-23 17:37:00,
2013-07-23 13:42:00,74.9,70.1,29.67,SW,217,0.0,0.0,85,0.00,,,0.02,WeatherCatV1.15B25,2013-07-23 17:42:00,
2013-07-23 13:47:00,74.9,70.1,29.68,SW,217,1.0,3.0,85,0.00,,,0.02,WeatherCatV1.15B25,2013-07-23 17:47:00,
2013-07-23 13:53:00,75.3,70.8,29.67,SW,217,0.0,0.0,86,0.00,,,0.02,WeatherCatV1.15B25,2013-07-23 17:53:00,
2013-07-23 13:58:00,76.8,72.3,29.67,SW,217,2.0,3.0,86,0.00,,,0.02,WeatherCatV1.15B25,2013-07-23 17:58:00,
2013-07-23 14:03:00,77.5,71.9,29.68,SW,223,1.0,3.0,83,0.00,,,0.02,WeatherCatV1.15B25,2013-07-23 18:03:00,
2013-07-23 14:08:00,77.6,71.3,29.68,South,191,0.0,1.0,81,0.00,,,0.02,WeatherCatV1.15B25,2013-07-23 18:08:00,
2013-07-23 14:13:00,77.6,70.6,29.67,SSW,203,0.0,0.0,79,0.00,,,0.02,WeatherCatV1.15B25,2013-07-23 18:13:00,
2013-07-23 14:19:00,78.0,71.3,29.67,SSW,203,0.0,2.0,80,0.00,,,0.02,WeatherCatV1.15B25,2013-07-23 18:19:00,
2013-07-23 14:24:00,78.5,71.8,29.66,SSW,203,0.0,0.0,80,0.00,,,0.02,WeatherCatV1.15B25,2013-07-23 18:24:00,
2013-07-23 14:30:00,79.4,71.9,29.66,WSW,242,2.0,3.0,78,0.00,,,0.02,WeatherCatV1.15B25,2013-07-23 18:30:00,
2013-07-23 14:35:00,80.4,72.1,29.65,West,280,1.0,2.0,76,0.00,,,0.02,WeatherCatV1.15B25,2013-07-23 18:35:00,
2013-07-23 14:40:00,81.1,71.2,29.64,WSW,237,0.0,3.0,72,0.00,,,0.02,WeatherCatV1.15B25,2013-07-23 18:40:00,
2013-07-23 14:45:00,81.5,72.0,29.64,SSW,203,0.0,1.0,73,0.00,,,0.02,WeatherCatV1.15B25,2013-07-23 18:45:00,
2013-07-23 14:50:00,81.4,70.7,29.65,SSW,203,0.0,2.0,70,0.00,,,0.02,WeatherCatV1.15B25,2013-07-23 18:50:00,
2013-07-23 14:55:00,81.2,71.3,29.65,SSW,203,0.0,0.0,72,0.00,,,0.02,WeatherCatV1.15B25,2013-07-23 18:55:00,
2013-07-23 15:00:00,81.1,70.4,29.65,SSW,203,0.0,0.0,70,0.00,,,0.02,WeatherCatV1.15B25,2013-07-23 19:00:00,
2013-07-23 15:05:00,80.6,69.9,29.65,WSW,244,2.0,4.0,70,0.00,,,0.02,WeatherCatV1.15B25,2013-07-23 19:05:00,
2013-07-23 15:10:00,80.2,70.3,29.66,WSW,244,1.0,2.0,72,0.00,,,0.02,WeatherCatV1.15B25,2013-07-23 19:10:00,
2013-07-23 15:16:00,79.6,69.3,29.66,West,273,2.0,5.0,71,0.00,,,0.02,WeatherCatV1.15B25,2013-07-23 19:16:00,
2013-07-23 15:21:00,79.2,69.4,29.67,WSW,242,3.0,4.0,72,0.00,,,0.02,WeatherCatV1.15B25,2013-07-23 19:21:00,
2013-07-23 15:26:00,78.1,67.1,29.69,NW,306,6.0,10.0,69,0.00,,,0.02,WeatherCatV1.15B25,2013-07-23 19:26:00,
2013-07-23 15:31:00,74.0,64.4,29.70,WSW,242,5.0,7.0,72,0.00,,,0.02,WeatherCatV1.15B25,2013-07-23 19:31:00,
2013-07-23 15:36:00,71.8,64.6,29.68,NNW,327,1.0,9.0,78,0.00,,,0.03,WeatherCatV1.15B25,2013-07-23 19:36:00,
2013-07-23 15:42:00,70.2,64.4,29.68,North,9,2.0,2.0,82,0.10,,,0.04,WeatherCatV1.15B25,2013-07-23 19:42:00,
2013-07-23 15:47:00,69.4,64.0,29.69,SW,227,3.0,4.0,83,2.85,,,0.10,WeatherCatV1.15B25,2013-07-23 19:47:00,
2013-07-23 15:52:00,68.5,63.8,29.70,WNW,298,1.0,7.0,85,4.88,,,0.25,WeatherCatV1.15B25,2013-07-23 19:52:00,
2013-07-23 15:57:00,68.0,63.6,29.67,North,355,0.0,2.0,86,0.98,,,0.46,WeatherCatV1.15B25,2013-07-23 19:57:00,
2013-07-23 16:02:00,67.8,63.8,29.67,NNE,13,0.0,0.0,87,0.11,,,0.46,WeatherCatV1.15B25,2013-07-23 20:02:00,
2013-07-23 16:08:00,67.5,63.8,29.67,WSW,241,0.0,0.0,88,0.05,,,0.46,WeatherCatV1.15B25,2013-07-23 20:08:00,
2013-07-23 16:13:00,67.7,64.3,29.67,WSW,241,0.0,0.0,89,0.04,,,0.46,WeatherCatV1.15B25,2013-07-23 20:13:00,
2013-07-23 16:19:00,68.0,64.6,29.66,NNE,17,0.0,0.0,89,0.00,,,0.46,WeatherCatV1.15B25,2013-07-23 20:19:00,
2013-07-23 16:24:00,68.5,65.4,29.66,NNE,17,0.0,0.0,90,0.00,,,0.46,WeatherCatV1.15B25,2013-07-23 20:24:00,
2013-07-23 16:30:00,69.5,66.8,29.67,NE,50,0.0,0.0,91,0.00,,,0.46,WeatherCatV1.15B25,2013-07-23 20:30:00,
2013-07-23 16:35:00,70.4,67.6,29.67,WSW,251,0.0,0.0,91,0.00,,,0.46,WeatherCatV1.15B25,2013-07-23 20:35:00,
2013-07-23 16:40:00,71.4,68.9,29.67,NNW,329,1.0,1.0,92,0.00,,,0.46,WeatherCatV1.15B25,2013-07-23 20:40:00,
2013-07-23 16:45:00,71.4,68.6,29.67,NNW,329,0.0,0.0,91,0.00,,,0.46,WeatherCatV1.15B25,2013-07-23 20:45:00,
2013-07-23 16:50:00,71.9,69.1,29.67,NNW,329,0.0,2.0,91,0.00,,,0.46,WeatherCatV1.15B25,2013-07-23 20:50:00,
2013-07-23 16:55:00,72.2,69.4,29.66,ESE,102,0.0,0.0,91,0.00,,,0.46,WeatherCatV1.15B25,2013-07-23 20:55:00,
2013-07-23 17:02:00,73.0,69.9,29.66,SSE,167,0.0,0.0,90,0.00,,,0.46,WeatherCatV1.15B25,2013-07-23 21:02:00,
2013-07-23 17:07:00,73.3,70.2,29.66,SSE,148,0.0,0.0,90,0.00,,,0.46,WeatherCatV1.15B25,2013-07-23 21:07:00,
2013-07-23 17:12:00,73.8,70.7,29.66,SSE,148,0.0,0.0,90,0.00,,,0.46,WeatherCatV1.15B25,2013-07-23 21:12:00,
2013-07-23 17:17:00,74.0,70.5,29.66,SSE,148,0.0,0.0,89,0.00,,,0.46,WeatherCatV1.15B25,2013-07-23 21:17:00,
2013-07-23 17:22:00,74.1,70.6,29.65,SSE,148,0.0,0.0,89,0.00,,,0.46,WeatherCatV1.15B25,2013-07-23 21:22:00,
2013-07-23 17:27:00,74.9,71.4,29.65,SSE,148,0.0,0.0,89,0.00,,,0.46,WeatherCatV1.15B25,2013-07-23 21:27:00,
2013-07-23 17:32:00,75.3,71.5,29.65,SSE,148,0.0,0.0,88,0.00,,,0.46,WeatherCatV1.15B25,2013-07-23 21:32:00,
2013-07-23 17:37:00,75.7,71.9,29.64,SE,133,0.0,0.0,88,0.00,,,0.46,WeatherCatV1.15B25,2013-07-23 21:37:00,
2013-07-23 17:42:00,75.9,71.7,29.64,NNE,17,0.0,0.0,87,0.00,,,0.46,WeatherCatV1.15B25,2013-07-23 21:42:00,
2013-07-23 17:48:00,76.4,71.5,29.63,NNE,17,0.0,0.0,85,0.00,,,0.46,WeatherCatV1.15B25,2013-07-23 21:48:00,
2013-07-23 17:54:00,76.1,70.5,29.64,NE,43,1.0,2.0,83,0.00,,,0.46,WeatherCatV1.15B25,2013-07-23 21:54:00,
2013-07-23 17:59:00,75.9,70.4,29.64,NE,43,0.0,0.0,83,0.00,,,0.46,WeatherCatV1.15B25,2013-07-23 21:59:00,
2013-07-23 18:04:00,76.0,70.4,29.63,ESE,105,2.0,2.0,83,0.00,,,0.46,WeatherCatV1.15B25,2013-07-23 22:04:00,
2013-07-23 18:09:00,75.6,70.1,29.63,SW,234,0.0,1.0,83,0.00,,,0.46,WeatherCatV1.15B25,2013-07-23 22:09:00,
2013-07-23 18:14:00,75.6,70.4,29.63,SW,234,0.0,0.0,84,0.00,,,0.46,WeatherCatV1.15B25,2013-07-23 22:14:00,
2013-07-23 18:19:00,75.2,70.0,29.63,South,191,0.0,0.0,84,0.00,,,0.46,WeatherCatV1.15B25,2013-07-23 22:19:00,
2013-07-23 18:24:00,75.2,70.4,29.63,NW,326,0.0,0.0,85,0.00,,,0.46,WeatherCatV1.15B25,2013-07-23 22:24:00,
2013-07-23 18:29:00,75.4,70.6,29.64,NW,326,0.0,0.0,85,0.00,,,0.46,WeatherCatV1.15B25,2013-07-23 22:29:00,
2013-07-23 18:34:00,75.2,70.4,29.63,NW,326,0.0,0.0,85,0.00,,,0.46,WeatherCatV1.15B25,2013-07-23 22:34:00,
2013-07-23 18:39:00,74.8,70.0,29.63,NW,326,0.0,0.0,85,0.00,,,0.46,WeatherCatV1.15B25,2013-07-23 22:39:00,
2013-07-23 18:44:00,74.6,69.8,29.62,NW,326,0.0,0.0,85,0.00,,,0.46,WeatherCatV1.15B25,2013-07-23 22:44:00,
2013-07-23 18:49:00,74.1,69.6,29.62,NW,326,0.0,0.0,86,0.00,,,0.47,WeatherCatV1.15B25,2013-07-23 22:49:00,
2013-07-23 18:54:00,73.9,69.8,29.62,NW,326,0.0,0.0,87,0.00,,,0.47,WeatherCatV1.15B25,2013-07-23 22:54:00,
2013-07-23 18:59:00,73.8,69.7,29.62,NW,326,0.0,0.0,87,0.00,,,0.47,WeatherCatV1.15B25,2013-07-23 22:59:00,
2013-07-23 19:05:00,73.8,70.0,29.61,NW,326,0.0,0.0,88,0.00,,,0.47,WeatherCatV1.15B25,2013-07-23 23:05:00,
2013-07-23 19:11:00,73.8,70.0,29.61,NW,326,0.0,0.0,88,0.00,,,0.47,WeatherCatV1.15B25,2013-07-23 23:11:00,
2013-07-23 19:17:00,73.8,70.3,29.63,NW,326,0.0,0.0,89,0.00,,,0.47,WeatherCatV1.15B25,2013-07-23 23:17:00,
2013-07-23 19:24:00,74.0,70.5,29.63,ENE,78,0.0,0.0,89,0.00,,,0.47,WeatherCatV1.15B25,2013-07-23 23:24:00,
2013-07-23 19:29:00,74.1,71.0,29.62,ENE,78,0.0,0.0,90,0.00,,,0.47,WeatherCatV1.15B25,2013-07-23 23:29:00,
2013-07-23 19:34:00,74.3,70.8,29.62,ENE,78,0.0,0.0,89,0.00,,,0.47,WeatherCatV1.15B25,2013-07-23 23:34:00,
2013-07-23 19:41:00,74.5,71.4,29.62,ENE,74,0.0,0.0,90,0.00,,,0.47,WeatherCatV1.15B25,2013-07-23 23:41:00,
2013-07-23 19:46:00,74.7,71.6,29.62,ENE,75,0.0,0.0,90,0.00,,,0.47,WeatherCatV1.15B25,2013-07-23 23:46:00,
2013-07-23 19:51:00,74.7,71.2,29.63,ENE,76,0.0,0.0,89,0.00,,,0.47,WeatherCatV1.15B25,2013-07-23 23:51:00,
2013-07-23 19:57:00,74.7,71.2,29.63,ENE,76,0.0,0.0,89,0.00,,,0.47,WeatherCatV1.15B25,2013-07-23 23:57:00,
2013-07-23 20:03:00,74.5,70.7,29.63,ENE,76,0.0,0.0,88,0.00,,,0.47,WeatherCatV1.15B25,2013-07-24 00:03:00,
2013-07-23 20:08:00,74.5,70.7,29.65,ENE,75,0.0,1.0,88,0.00,,,0.47,WeatherCatV1.15B25,2013-07-24 00:08:00,
2013-07-23 20:13:00,74.3,70.2,29.65,West,263,0.0,7.0,87,0.00,,,0.47,WeatherCatV1.15B25,2013-07-24 00:13:00,
2013-07-23 20:18:00,73.8,69.7,29.65,West,270,2.0,6.0,87,0.00,,,0.47,WeatherCatV1.15B25,2013-07-24 00:18:00,
2013-07-23 20:23:00,73.2,69.4,29.65,NNE,18,3.0,10.0,88,0.00,,,0.47,WeatherCatV1.15B25,2013-07-24 00:23:00,
2013-07-23 20:28:00,72.7,68.6,29.65,SSW,203,3.0,5.0,87,0.00,,,0.47,WeatherCatV1.15B25,2013-07-24 00:28:00,
2013-07-23 20:33:00,72.6,68.8,29.66,NNW,330,1.0,3.0,88,0.00,,,0.47,WeatherCatV1.15B25,2013-07-24 00:33:00,
2013-07-23 20:38:00,72.5,68.7,29.66,NNW,342,0.0,14.0,88,0.00,,,0.47,WeatherCatV1.15B25,2013-07-24 00:38:00,
2013-07-23 20:43:00,72.5,68.4,29.67,NNW,332,1.0,9.0,87,0.00,,,0.47,WeatherCatV1.15B25,2013-07-24 00:43:00,
2013-07-23 20:48:00,72.3,67.9,29.67,SSW,201,1.0,3.0,86,0.00,,,0.47,WeatherCatV1.15B25,2013-07-24 00:48:00,
2013-07-23 20:53:00,72.2,67.8,29.67,SW,217,0.0,4.0,86,0.00,,,0.47,WeatherCatV1.15B25,2013-07-24 00:53:00,
2013-07-23 21:00:00,72.3,67.2,29.68,SE,125,0.0,5.0,84,0.00,,,0.47,WeatherCatV1.15B25,2013-07-24 01:00:00,
2013-07-23 21:07:00,72.1,67.0,29.69,North,355,1.0,4.0,84,0.00,,,0.47,WeatherCatV1.15B25,2013-07-24 01:07:00,
2013-07-23 21:12:00,71.9,66.1,29.69,North,10,0.0,6.0,82,0.00,,,0.47,WeatherCatV1.15B25,2013-07-24 01:12:00,
2013-07-23 21:17:00,71.8,66.0,29.69,SW,215,2.0,3.0,82,0.00,,,0.47,WeatherCatV1.15B25,2013-07-24 01:17:00,
2013-07-23 21:22:00,71.9,66.1,29.69,East,79,4.0,4.0,82,0.00,,,0.47,WeatherCatV1.15B25,2013-07-24 01:22:00,
2013-07-23 21:27:00,71.7,65.2,29.70,WSW,240,6.0,6.0,80,0.00,,,0.47,WeatherCatV1.15B25,2013-07-24 01:27:00,
2013-07-23 21:32:00,71.6,64.7,29.70,SSW,206,2.0,6.0,79,0.00,,,0.47,WeatherCatV1.15B25,2013-07-24 01:32:00,
2013-07-23 21:37:00,71.5,64.6,29.71,WSW,254,1.0,3.0,79,0.00,,,0.47,WeatherCatV1.15B25,2013-07-24 01:37:00,
2013-07-23 21:43:00,71.4,64.2,29.71,South,178,0.0,4.0,78,0.00,,,0.47,WeatherCatV1.15B25,2013-07-24 01:43:00,
2013-07-23 21:48:00,71.3,64.1,29.71,North,0,3.0,3.0,78,0.00,,,0.47,WeatherCatV1.15B25,2013-07-24 01:48:00,
2013-07-23 21:54:00,71.3,64.1,29.71,North,0,1.0,6.0,78,0.00,,,0.47,WeatherCatV1.15B25,2013-07-24 01:54:00,
2013-07-23 21:59:00,71.2,64.0,29.71,West,271,5.0,8.0,78,0.00,,,0.47,WeatherCatV1.15B25,2013-07-24 01:59:00,
2013-07-23 22:05:00,71.0,63.4,29.71,NNW,332,2.0,10.0,77,0.00,,,0.47,WeatherCatV1.15B25,2013-07-24 02:05:00,
2013-07-23 22:10:00,70.8,62.8,29.71,West,261,6.0,7.0,76,0.00,,,0.47,WeatherCatV1.15B25,2013-07-24 02:10:00,
2013-07-23 22:15:00,70.7,62.4,29.72,SW,215,6.0,6.0,75,0.00,,,0.47,WeatherCatV1.15B25,2013-07-24 02:15:00,
2013-07-23 22:20:00,70.8,62.5,29.72,SSW,207,0.0,5.0,75,0.00,,,0.47,WeatherCatV1.15B25,2013-07-24 02:20:00,
2013-07-23 22:25:00,70.8,62.8,29.73,NW,311,3.0,9.0,76,0.00,,,0.47,WeatherCatV1.15B25,2013-07-24 02:25:00,
2013-07-23 22:30:00,70.8,62.8,29.73,SSW,194,0.0,6.0,76,0.00,,,0.47,WeatherCatV1.15B25,2013-07-24 02:30:00,
2013-07-23 22:35:00,70.6,62.7,29.73,West,263,4.0,6.0,76,0.00,,,0.47,WeatherCatV1.15B25,2013-07-24 02:35:00,
2013-07-23 22:41:00,70.5,62.2,29.74,South,169,2.0,3.0,75,0.00,,,0.47,WeatherCatV1.15B25,2013-07-24 02:41:00,
2013-07-23 22:47:00,70.3,61.6,29.74,NW,306,0.0,3.0,74,0.00,,,0.47,WeatherCatV1.15B25,2013-07-24 02:47:00,
2013-07-23 22:52:00,70.3,61.6,29.74,North,0,2.0,5.0,74,0.00,,,0.47,WeatherCatV1.15B25,2013-07-24 02:52:00,
2013-07-23 22:57:00,70.2,61.5,29.74,North,0,1.0,5.0,74,0.00,,,0.47,WeatherCatV1.15B25,2013-07-24 02:57:00,
2013-07-23 23:02:00,70.1,61.4,29.74,NE,53,3.0,4.0,74,0.00,,,0.47,WeatherCatV1.15B25,2013-07-24 03:02:00,
2013-07-23 23:07:00,69.9,60.8,29.74,NNW,338,0.0,7.0,73,0.00,,,0.47,WeatherCatV1.15B25,2013-07-24 03:07:00,
2013-07-23 23:12:00,69.9,61.2,29.75,SSW,205,0.0,0.0,74,0.00,,,0.47,WeatherCatV1.15B25,2013-07-24 03:12:00,
2013-07-23 23:17:00,69.8,60.7,29.75,NNE,16,4.0,10.0,73,0.00,,,0.47,WeatherCatV1.15B25,2013-07-24 03:17:00,
2013-07-23 23:22:00,69.8,60.7,29.75,NNE,15,7.0,7.0,73,0.00,,,0.47,WeatherCatV1.15B25,2013-07-24 03:22:00,
2013-07-23 23:27:00,69.8,60.7,29.76,NNW,339,3.0,9.0,73,0.00,,,0.47,WeatherCatV1.15B25,2013-07-24 03:27:00,
2013-07-23 23:33:00,69.6,60.9,29.76,NNE,13,0.0,7.0,74,0.00,,,0.47,WeatherCatV1.15B25,2013-07-24 03:33:00,
2013-07-23 23:39:00,69.3,60.3,29.76,North,11,7.0,8.0,73,0.00,,,0.47,WeatherCatV1.15B25,2013-07-24 03:39:00,
2013-07-23 23:44:00,69.1,60.1,29.76,NW,326,0.0,10.0,73,0.00,,,0.47,WeatherCatV1.15B25,2013-07-24 03:44:00,
2013-07-23 23:49:00,68.9,59.9,29.76,NNE,28,2.0,13.0,73,0.00,,,0.47,WeatherCatV1.15B25,2013-07-24 03:49:00,
2013-07-23 23:54:00,68.8,59.8,29.76,SSW,192,3.0,5.0,73,0.00,,,0.47,WeatherCatV1.15B25,2013-07-24 03:54:00,
2013-07-23 23:59:00,68.6,59.6,29.77,WNW,300,0.0,5.0,73,0.00,,,0.47,WeatherCatV1.15B25,2013-07-24 03:59:00,